createdAt,value
2017-05-07T00:01:56.446Z,8.66
2017-05-07T00:04:23.716Z,7.94
2017-05-07T00:06:51.070Z,7.80
2017-05-07T00:09:18.355Z,8.36
2017-05-07T00:11:46.082Z,8.88
2017-05-07T00:14:13.439Z,10.46
2017-05-07T00:16:40.792Z,10.84
2017-05-07T00:19:08.075Z,11.16
2017-05-07T00:21:35.394Z,10.72
2017-05-07T00:24:02.670Z,10.74
2017-05-07T00:26:29.949Z,11.46
2017-05-07T00:28:57.671Z,9.72
2017-05-07T00:31:25.026Z,9.50
2017-05-07T00:33:52.302Z,9.32
2017-05-07T00:36:19.941Z,10.74
2017-05-07T00:38:47.221Z,11.64
2017-05-07T00:41:14.501Z,11.26
2017-05-07T00:43:42.221Z,11.08
2017-05-07T00:46:09.494Z,11.46
2017-05-07T00:48:36.774Z,11.32
2017-05-07T00:51:04.493Z,11.36
2017-05-07T00:53:31.850Z,10.92
2017-05-07T00:55:59.216Z,11.04
2017-05-07T00:58:26.539Z,10.50
2017-05-07T01:00:53.914Z,10.62
2017-05-07T01:03:21.195Z,11.34
2017-05-07T01:05:48.478Z,11.76
2017-05-07T01:08:16.181Z,10.12
2017-05-07T01:10:43.541Z,10.16
2017-05-07T01:13:10.493Z,11.40
2017-05-07T01:15:37.421Z,9.72
2017-05-07T01:18:04.792Z,11.48
2017-05-07T01:20:32.145Z,10.90
2017-05-07T01:22:59.474Z,10.30
2017-05-07T01:25:26.853Z,10.66
2017-05-07T01:27:54.135Z,11.48
2017-05-07T01:30:21.472Z,11.06
2017-05-07T01:32:48.759Z,11.90
2017-05-07T01:35:15.677Z,11.20
2017-05-07T01:37:42.998Z,10.92
2017-05-07T01:40:10.286Z,11.74
2017-05-07T01:42:37.674Z,11.62
2017-05-07T01:45:04.682Z,12.28
2017-05-07T01:47:31.966Z,12.02
2017-05-07T01:49:59.251Z,11.16
2017-05-07T01:52:27.062Z,12.30
2017-05-07T01:54:54.415Z,13.00
2017-05-07T01:57:21.298Z,12.08
2017-05-07T01:59:48.714Z,12.88
2017-05-07T02:02:16.073Z,11.38
2017-05-07T02:04:42.958Z,13.52
2017-05-07T02:07:10.373Z,11.70
2017-05-07T02:09:37.322Z,12.96
2017-05-07T02:12:04.678Z,12.50
2017-05-07T02:14:32.030Z,12.84
2017-05-07T02:16:59.385Z,13.76
2017-05-07T02:19:26.745Z,13.30
2017-05-07T02:21:54.206Z,12.62
2017-05-07T02:24:21.494Z,12.20
2017-05-07T02:26:48.785Z,12.92
2017-05-07T02:29:16.166Z,14.28
2017-05-07T02:31:43.521Z,12.64
2017-05-07T02:34:10.474Z,14.92
2017-05-07T02:36:37.835Z,13.54
2017-05-07T02:39:05.187Z,13.60
2017-05-07T02:41:32.513Z,14.10
2017-05-07T02:43:59.794Z,15.62
2017-05-07T02:46:27.078Z,12.10
2017-05-07T02:48:54.430Z,12.68
2017-05-07T02:51:21.734Z,13.20
2017-05-07T02:53:49.125Z,12.68
2017-05-07T02:56:16.470Z,12.90
2017-05-07T02:58:43.424Z,11.76
2017-05-07T03:01:10.776Z,13.10
2017-05-07T03:03:37.702Z,12.02
2017-05-07T03:06:04.982Z,13.38
2017-05-07T03:08:32.329Z,12.78
2017-05-07T03:10:59.657Z,12.42
2017-05-07T03:13:27.047Z,13.62
2017-05-07T03:15:54.385Z,12.38
2017-05-07T03:18:21.751Z,14.64
2017-05-07T03:20:49.110Z,13.96
2017-05-07T03:23:16.462Z,14.94
2017-05-07T03:25:43.410Z,15.62
2017-05-07T03:28:10.765Z,15.30
2017-05-07T03:30:38.121Z,14.06
2017-05-07T03:33:05.469Z,14.36
2017-05-07T03:35:32.749Z,14.48
2017-05-07T03:38:00.031Z,14.54
2017-05-07T03:40:27.752Z,14.50
2017-05-07T03:42:55.031Z,15.20
2017-05-07T03:45:21.936Z,13.76
2017-05-07T03:47:48.879Z,15.08
2017-05-07T03:50:16.237Z,16.40
2017-05-07T03:52:43.513Z,16.88
2017-05-07T03:55:10.830Z,15.68
2017-05-07T03:57:37.718Z,17.46
2017-05-07T04:00:04.607Z,16.44
2017-05-07T04:02:32.670Z,17.26
2017-05-07T04:04:59.965Z,16.04
2017-05-07T04:07:27.251Z,17.00
2017-05-07T04:09:54.669Z,17.70
2017-05-07T04:12:22.031Z,17.98
2017-05-07T04:14:50.338Z,23.18
2017-05-07T04:17:17.671Z,20.44
2017-05-07T04:19:44.961Z,18.72
2017-05-07T04:22:12.274Z,18.66
2017-05-07T04:24:39.198Z,17.28
2017-05-07T04:27:06.569Z,22.14
2017-05-07T04:29:33.930Z,17.50
2017-05-07T04:32:01.299Z,17.48
2017-05-07T04:34:28.655Z,19.70
2017-05-07T04:36:55.997Z,15.90
2017-05-07T04:39:23.356Z,15.98
2017-05-07T04:41:50.718Z,14.42
2017-05-07T04:44:18.002Z,17.28
2017-05-07T04:46:44.926Z,18.56
2017-05-07T04:49:12.266Z,17.84
2017-05-07T04:51:39.549Z,20.36
2017-05-07T04:54:06.978Z,20.80
2017-05-07T04:56:34.338Z,20.58
2017-05-07T04:59:01.618Z,19.72
2017-05-07T05:01:28.942Z,21.60
2017-05-07T05:03:56.299Z,19.32
2017-05-07T05:06:23.582Z,20.04
2017-05-07T05:08:51.010Z,23.02
2017-05-07T05:11:18.366Z,19.12
2017-05-07T05:13:45.310Z,22.08
2017-05-07T05:16:12.629Z,21.10
2017-05-07T05:18:54.389Z,24.10
2017-05-07T05:21:37.438Z,20.92
2017-05-07T05:30:13.030Z,19.46
2017-05-07T05:32:40.723Z,23.82
2017-05-07T05:35:07.998Z,21.34
2017-05-07T05:37:35.321Z,20.62
2017-05-07T05:40:02.636Z,19.70
2017-05-07T05:42:29.922Z,19.84
2017-05-07T05:44:57.578Z,19.02
2017-05-07T05:47:25.318Z,17.70
2017-05-07T05:49:53.003Z,19.60
2017-05-07T05:52:20.281Z,20.82
2017-05-07T05:54:47.617Z,19.42
2017-05-07T05:57:15.269Z,17.62
2017-05-07T05:59:42.548Z,16.40
2017-05-07T06:02:09.934Z,16.20
2017-05-07T06:04:37.210Z,15.00
2017-05-07T06:07:04.543Z,15.24
2017-05-07T06:09:31.902Z,15.94
2017-05-07T06:11:59.258Z,14.98
2017-05-07T06:14:26.547Z,14.28
2017-05-07T06:16:53.865Z,18.02
2017-05-07T06:19:21.222Z,11.88
2017-05-07T06:21:48.511Z,13.52
2017-05-07T06:24:15.933Z,13.90
2017-05-07T06:26:43.285Z,13.02
2017-05-07T06:29:11.025Z,12.30
2017-05-07T06:31:38.345Z,13.98
2017-05-07T06:34:06.062Z,12.02
2017-05-07T06:36:33.350Z,13.26
2017-05-07T06:39:00.680Z,13.62
2017-05-07T06:41:27.965Z,13.64
2017-05-07T06:43:54.857Z,12.62
2017-05-07T06:46:22.183Z,13.46
2017-05-07T06:48:49.170Z,12.64
2017-05-07T06:51:16.526Z,14.32
2017-05-07T06:53:43.891Z,14.12
2017-05-07T06:56:11.174Z,13.70
2017-05-07T06:58:38.458Z,14.56
2017-05-07T07:01:05.440Z,13.74
2017-05-07T07:03:32.778Z,13.78
2017-05-07T07:05:59.662Z,12.40
2017-05-07T07:08:26.943Z,12.68
2017-05-07T07:10:54.297Z,13.44
2017-05-07T07:13:22.017Z,13.40
2017-05-07T07:15:49.304Z,13.04
2017-05-07T07:18:16.730Z,11.48
2017-05-07T07:20:44.010Z,11.70
2017-05-07T07:23:11.299Z,12.24
2017-05-07T07:25:38.617Z,12.42
2017-05-07T07:28:05.954Z,11.28
2017-05-07T07:30:33.302Z,10.82
2017-05-07T07:33:00.658Z,10.34
2017-05-07T07:35:27.948Z,9.64
2017-05-07T07:37:55.303Z,10.14
2017-05-07T07:40:22.730Z,9.92
2017-05-07T07:42:50.089Z,11.66
2017-05-07T07:45:17.362Z,9.38
2017-05-07T07:47:44.797Z,10.28
2017-05-07T07:50:12.149Z,11.26
2017-05-07T07:52:39.041Z,11.62
2017-05-07T07:55:05.975Z,12.38
2017-05-07T07:57:33.254Z,12.32
2017-05-07T08:00:00.936Z,13.08
2017-05-07T08:02:28.266Z,13.78
2017-05-07T08:04:55.921Z,11.76
2017-05-07T08:07:22.812Z,12.10
2017-05-07T08:09:50.140Z,11.80
2017-05-07T08:12:17.434Z,11.82
2017-05-07T08:14:44.713Z,11.20
2017-05-07T08:17:12.141Z,11.68
2017-05-07T08:19:39.418Z,11.00
2017-05-07T08:22:06.341Z,12.12
2017-05-07T08:24:33.661Z,9.72
2017-05-07T08:27:00.946Z,10.94
2017-05-07T08:29:28.305Z,10.64
2017-05-07T08:31:55.634Z,11.56
2017-05-07T08:34:23.017Z,10.98
2017-05-07T08:36:50.316Z,10.28
2017-05-07T08:39:17.249Z,11.42
2017-05-07T08:41:44.535Z,9.30
2017-05-07T08:44:11.822Z,10.02
2017-05-07T08:46:39.142Z,8.94
2017-05-07T08:49:06.793Z,9.16
2017-05-07T08:51:34.458Z,10.16
2017-05-07T08:54:02.156Z,8.58
2017-05-07T08:56:29.429Z,9.08
2017-05-07T08:58:56.785Z,9.22
2017-05-07T09:01:24.134Z,7.78
2017-05-07T09:03:51.417Z,7.88
2017-05-07T09:06:18.693Z,7.46
2017-05-07T09:08:46.449Z,9.10
2017-05-07T09:11:13.726Z,9.24
2017-05-07T09:13:57.014Z,8.28
2017-05-07T09:19:31.074Z,7.24
2017-05-07T09:21:57.967Z,7.64
2017-05-07T09:24:25.243Z,8.18
2017-05-07T09:26:52.566Z,8.82
2017-05-07T09:29:19.846Z,8.16
2017-05-07T09:31:47.129Z,7.86
2017-05-07T09:34:14.541Z,9.10
2017-05-07T09:36:41.897Z,8.88
2017-05-07T09:39:09.177Z,11.20
2017-05-07T09:41:36.502Z,7.40
2017-05-07T09:44:03.781Z,9.58
2017-05-07T09:46:31.058Z,9.70
2017-05-07T09:48:58.369Z,9.28
2017-05-07T09:51:25.726Z,9.82
2017-05-07T09:53:53.026Z,10.72
2017-05-07T09:56:20.373Z,10.96
2017-05-07T09:58:47.649Z,11.52
2017-05-07T10:01:15.295Z,11.06
2017-05-07T10:03:42.612Z,10.84
2017-05-07T10:06:09.973Z,13.84
2017-05-07T10:08:36.858Z,12.88
2017-05-07T10:11:04.198Z,11.28
2017-05-07T10:13:31.479Z,11.52
2017-05-07T10:15:58.369Z,13.04
2017-05-07T10:18:25.701Z,13.52
2017-05-07T10:20:53.085Z,12.14
2017-05-07T10:23:19.973Z,12.80
2017-05-07T10:25:47.297Z,10.32
2017-05-07T10:28:14.586Z,11.88
2017-05-07T10:30:42.306Z,11.76
2017-05-07T10:33:09.639Z,14.18
2017-05-07T10:35:36.519Z,13.68
2017-05-07T10:38:03.806Z,12.76
2017-05-07T10:40:31.526Z,13.36
2017-05-07T10:42:58.811Z,14.42
2017-05-07T10:45:26.158Z,14.62
2017-05-07T10:47:53.095Z,17.52
2017-05-07T10:50:20.375Z,15.70
2017-05-07T10:52:47.655Z,16.02
2017-05-07T10:55:14.574Z,17.12
2017-05-07T10:57:41.855Z,17.18
2017-05-07T11:00:09.169Z,17.44
2017-05-07T11:02:36.094Z,17.18
2017-05-07T11:05:03.449Z,15.80
2017-05-07T11:07:30.790Z,15.02
2017-05-07T11:09:58.155Z,14.64
2017-05-07T11:12:25.041Z,13.56
2017-05-07T11:14:52.361Z,13.34
2017-05-07T11:17:19.638Z,13.10
2017-05-07T11:19:46.913Z,11.70
2017-05-07T11:22:14.239Z,11.92
2017-05-07T11:24:41.574Z,12.58
2017-05-07T11:27:08.929Z,11.52
2017-05-07T11:29:36.262Z,11.80
2017-05-07T11:32:03.251Z,11.48
2017-05-07T11:34:30.589Z,11.82
2017-05-07T11:36:57.910Z,14.86
2017-05-07T11:39:25.245Z,14.96
2017-05-07T11:41:52.527Z,14.18
2017-05-07T11:44:19.413Z,14.78
2017-05-07T11:46:46.750Z,15.80
2017-05-07T11:49:14.097Z,17.22
2017-05-07T11:51:41.378Z,15.28
2017-05-07T11:54:08.721Z,16.16
2017-05-07T11:56:36.065Z,15.66
2017-05-07T11:59:02.998Z,13.82
2017-05-07T12:01:29.946Z,16.12
2017-05-07T12:03:57.314Z,16.70
2017-05-07T12:06:24.277Z,17.66
2017-05-07T12:08:51.614Z,14.94
2017-05-07T12:11:18.901Z,15.26
2017-05-07T12:13:46.227Z,15.48
2017-05-07T12:16:13.163Z,16.56
2017-05-07T12:18:40.463Z,16.22
2017-05-07T12:21:07.739Z,15.94
2017-05-07T12:23:35.445Z,13.42
2017-05-07T12:26:02.724Z,14.94
2017-05-07T12:28:30.012Z,15.86
2017-05-07T12:30:57.713Z,17.52
2017-05-07T12:33:24.997Z,18.06
2017-05-07T12:35:52.378Z,18.42
2017-05-07T12:38:19.374Z,18.46
2017-05-07T12:40:46.317Z,14.58
2017-05-07T12:43:13.594Z,14.88
2017-05-07T12:45:40.926Z,16.42
2017-05-07T12:48:08.205Z,15.94
2017-05-07T12:50:35.541Z,15.00
2017-05-07T12:53:02.869Z,15.90
2017-05-07T12:55:29.783Z,16.00
2017-05-07T12:57:57.110Z,16.20
2017-05-07T13:00:24.435Z,17.50
2017-05-07T13:02:51.714Z,16.00
2017-05-07T13:05:19.006Z,15.52
2017-05-07T13:07:46.414Z,16.06
2017-05-07T13:10:13.299Z,15.24
2017-05-07T13:12:40.585Z,16.98
2017-05-07T13:15:07.978Z,18.80
2017-05-07T13:17:34.871Z,18.92
2017-05-07T13:20:02.518Z,19.68
2017-05-07T13:22:29.863Z,16.36
2017-05-07T13:24:57.146Z,14.14
2017-05-07T13:27:24.422Z,14.94
2017-05-07T13:29:51.807Z,16.32
2017-05-07T13:32:19.158Z,16.96
2017-05-07T13:34:46.438Z,18.12
2017-05-07T13:37:13.804Z,19.84
2017-05-07T13:39:41.078Z,21.60
2017-05-07T13:42:08.785Z,23.46
2017-05-07T13:44:36.110Z,27.58
2017-05-07T13:47:03.390Z,29.20
2017-05-07T13:49:30.670Z,29.80
2017-05-07T13:51:58.105Z,31.80
2017-05-07T13:54:25.050Z,31.72
2017-05-07T13:56:52.334Z,33.30
2017-05-07T13:59:19.654Z,34.16
2017-05-07T14:01:47.002Z,34.22
2017-05-07T14:04:14.294Z,32.28
2017-05-07T14:06:41.617Z,35.82
2017-05-07T14:09:09.018Z,36.82
2017-05-07T14:11:36.670Z,36.72
2017-05-07T14:14:04.014Z,35.50
2017-05-07T14:16:30.933Z,38.34
2017-05-07T14:18:57.818Z,35.32
2017-05-07T14:21:25.233Z,38.46
2017-05-07T14:23:52.514Z,38.60
2017-05-07T14:26:19.850Z,39.32
2017-05-07T14:28:47.201Z,35.72
2017-05-07T14:31:14.153Z,37.70
2017-05-07T14:33:41.543Z,37.26
2017-05-07T14:36:08.857Z,38.46
2017-05-07T14:38:36.158Z,36.64
2017-05-07T14:41:03.470Z,37.54
2017-05-07T14:43:30.399Z,39.58
2017-05-07T14:45:58.041Z,39.90
2017-05-07T14:48:25.326Z,37.32
2017-05-07T14:50:52.713Z,36.70
2017-05-07T14:53:20.074Z,36.86
2017-05-07T14:55:47.462Z,37.52
2017-05-07T14:58:14.878Z,36.78
2017-05-07T15:00:42.162Z,38.16
2017-05-07T15:03:09.490Z,40.54
2017-05-07T15:05:36.543Z,41.70
2017-05-07T15:08:03.912Z,42.76
2017-05-07T15:10:31.310Z,40.48
2017-05-07T15:12:59.134Z,42.48
2017-05-07T15:15:26.418Z,43.96
2017-05-07T15:17:53.321Z,44.60
2017-05-07T15:20:20.682Z,44.12
2017-05-07T15:22:48.033Z,44.40
2017-05-07T15:25:15.018Z,43.66
2017-05-07T15:27:42.347Z,42.08
2017-05-07T15:30:09.626Z,45.66
2017-05-07T15:32:36.506Z,44.96
2017-05-07T15:35:04.004Z,46.00
2017-05-07T15:37:31.286Z,47.26
2017-05-07T15:39:58.173Z,46.52
2017-05-07T15:42:25.550Z,50.64
2017-05-07T15:44:52.903Z,53.42
2017-05-07T15:47:19.858Z,50.80
2017-05-07T15:49:47.217Z,55.24
2017-05-07T15:52:14.563Z,55.48
2017-05-07T15:54:41.921Z,61.80
2017-05-07T15:57:09.277Z,58.46
2017-05-07T15:59:36.569Z,56.68
2017-05-07T16:02:03.881Z,54.10
2017-05-07T16:04:30.839Z,57.44
2017-05-07T16:06:58.193Z,61.28
2017-05-07T16:09:25.473Z,59.62
2017-05-07T16:11:52.807Z,59.92
2017-05-07T16:14:20.153Z,57.76
2017-05-07T16:17:15.114Z,56.50
2017-05-07T16:26:01.949Z,58.36
2017-05-07T16:28:30.325Z,61.82
2017-05-07T16:31:12.503Z,64.18
2017-05-07T16:33:40.681Z,58.74
2017-05-07T16:36:07.957Z,59.46
2017-05-07T16:38:34.845Z,56.48
2017-05-07T16:41:02.192Z,60.94
2017-05-07T16:43:29.474Z,67.60
2017-05-07T16:45:56.753Z,64.76
2017-05-07T16:48:24.077Z,61.86
2017-05-07T16:50:51.549Z,62.48
2017-05-07T16:53:18.834Z,55.48
2017-05-07T16:55:45.797Z,60.54
2017-05-07T16:58:13.446Z,56.70
2017-05-07T17:00:40.742Z,60.82
2017-05-07T17:03:08.064Z,59.38
2017-05-07T17:05:35.719Z,69.84
2017-05-07T17:08:02.606Z,58.36
2017-05-07T17:10:29.989Z,64.50
2017-05-07T17:12:57.278Z,61.34
2017-05-07T17:15:24.566Z,59.92
2017-05-07T17:17:51.949Z,69.88
2017-05-07T17:20:19.344Z,63.24
2017-05-07T17:22:46.621Z,62.22
2017-05-07T17:25:14.338Z,62.64
2017-05-07T17:27:41.678Z,60.52
2017-05-07T17:30:09.037Z,60.82
2017-05-07T17:32:36.022Z,66.60
2017-05-07T17:35:03.302Z,56.94
2017-05-07T17:37:31.009Z,64.50
2017-05-07T17:39:58.396Z,59.86
2017-05-07T17:42:25.818Z,64.26
2017-05-07T17:44:53.178Z,62.88
2017-05-07T17:47:20.463Z,63.24
2017-05-07T17:49:48.293Z,57.98
2017-05-07T17:52:15.182Z,64.84
2017-05-07T17:54:42.905Z,61.46
2017-05-07T17:57:10.262Z,61.90
2017-05-07T17:59:37.653Z,61.54
2017-05-07T18:02:04.938Z,60.52
2017-05-07T18:04:32.325Z,58.74
2017-05-07T18:06:59.280Z,60.00
2017-05-07T18:09:26.666Z,60.98
2017-05-07T18:11:54.090Z,59.84
2017-05-07T18:14:21.379Z,56.66
2017-05-07T18:16:48.708Z,61.80
2017-05-07T18:19:16.054Z,54.36
2017-05-07T18:21:43.349Z,52.02
2017-05-07T18:24:10.632Z,51.10
2017-05-07T18:26:38.027Z,54.02
2017-05-07T18:29:05.374Z,52.08
2017-05-07T18:31:32.658Z,53.12
2017-05-07T18:33:59.985Z,52.42
2017-05-07T18:36:27.301Z,50.24
2017-05-07T18:38:54.199Z,49.14
2017-05-07T18:41:21.541Z,48.92
2017-05-07T18:43:48.866Z,48.16
2017-05-07T18:46:15.859Z,54.60
2017-05-07T18:48:43.156Z,51.10
2017-05-07T18:51:10.490Z,45.88
2017-05-07T18:53:37.378Z,43.56
2017-05-07T18:56:04.343Z,49.70
2017-05-07T18:58:31.672Z,44.88
2017-05-07T19:00:58.961Z,51.04
2017-05-07T19:03:26.247Z,43.42
2017-05-07T19:05:53.580Z,48.32
2017-05-07T19:08:20.870Z,43.24
2017-05-07T19:10:48.600Z,42.10
2017-05-07T19:13:15.934Z,43.12
2017-05-07T19:15:43.222Z,41.34
2017-05-07T19:18:10.529Z,41.78
2017-05-07T19:20:37.943Z,42.28
2017-05-07T19:23:05.221Z,44.92
2017-05-07T19:25:32.869Z,44.06
2017-05-07T19:28:00.586Z,44.54
2017-05-07T19:30:27.877Z,38.10
2017-05-07T19:32:55.194Z,45.12
2017-05-07T19:35:22.130Z,46.70
2017-05-07T19:37:49.014Z,49.96
2017-05-07T19:40:16.307Z,42.52
2017-05-07T19:42:43.634Z,46.02
2017-05-07T19:45:11.294Z,50.28
2017-05-07T19:47:38.198Z,52.52
2017-05-07T19:50:05.122Z,49.08
2017-05-07T19:52:32.034Z,55.04
2017-05-07T19:54:59.354Z,53.40
2017-05-07T19:57:26.630Z,49.44
2017-05-07T19:59:54.149Z,46.30
2017-05-07T20:02:21.865Z,53.42
2017-05-07T20:04:49.234Z,50.10
2017-05-07T20:07:16.514Z,51.52
2017-05-07T20:09:43.846Z,47.34
2017-05-07T20:12:11.192Z,46.26
2017-05-07T20:14:38.555Z,52.82
2017-05-07T20:17:05.898Z,46.92
2017-05-07T20:19:33.181Z,53.46
2017-05-07T20:22:00.457Z,45.52
2017-05-07T20:24:28.148Z,48.66
2017-05-07T20:26:55.533Z,47.04
2017-05-07T20:29:22.818Z,48.40
2017-05-07T20:31:49.797Z,49.12
2017-05-07T20:34:16.681Z,45.68
2017-05-07T20:36:44.050Z,47.94
2017-05-07T20:39:11.409Z,52.14
2017-05-07T20:41:38.745Z,53.34
2017-05-07T20:44:06.097Z,49.58
2017-05-07T20:46:33.428Z,51.54
2017-05-07T20:49:00.706Z,48.40
2017-05-07T20:51:27.987Z,47.58
2017-05-07T20:53:55.306Z,50.84
2017-05-07T20:56:22.676Z,53.20
2017-05-07T20:58:49.957Z,49.44
2017-05-07T21:01:17.381Z,59.16
2017-05-07T21:03:44.742Z,52.46
2017-05-07T21:06:11.637Z,51.58
2017-05-07T21:08:39.349Z,54.84
2017-05-07T21:11:06.237Z,50.66
2017-05-07T21:13:33.958Z,58.46
2017-05-07T21:16:01.287Z,50.94
2017-05-07T21:18:28.640Z,51.20
2017-05-07T21:20:55.931Z,48.34
2017-05-07T21:23:23.282Z,51.00
2017-05-07T21:25:50.572Z,57.76
2017-05-07T21:28:17.858Z,53.32
2017-05-07T21:30:45.182Z,49.34
2017-05-07T21:33:12.459Z,52.82
2017-05-07T21:35:40.123Z,52.76
2017-05-07T21:38:07.830Z,52.88
2017-05-07T21:40:35.182Z,51.90
2017-05-07T21:43:02.066Z,52.48
2017-05-07T21:45:29.481Z,50.58
2017-05-07T21:47:56.769Z,53.06
2017-05-07T21:50:24.070Z,53.92
2017-05-07T21:52:51.001Z,53.58
2017-05-07T21:55:17.990Z,54.40
2017-05-07T21:57:45.269Z,52.38
2017-05-07T22:00:12.695Z,57.70
2017-05-07T22:02:39.589Z,53.42
2017-05-07T22:05:06.874Z,50.80
2017-05-07T22:07:33.841Z,49.98
2017-05-07T22:10:01.121Z,52.34
2017-05-07T22:12:28.401Z,50.12
2017-05-07T22:14:56.129Z,49.48
2017-05-07T22:17:23.423Z,50.36
2017-05-07T22:19:51.073Z,51.76
2017-05-07T22:22:18.023Z,47.86
2017-05-07T22:24:45.301Z,52.64
2017-05-07T22:27:12.591Z,52.38
2017-05-07T22:29:39.919Z,52.32
2017-05-07T22:32:07.197Z,48.72
2017-05-07T22:34:34.487Z,50.98
2017-05-07T22:37:01.814Z,49.80
2017-05-07T22:39:29.166Z,50.68
2017-05-07T22:41:56.455Z,45.44
2017-05-07T22:44:23.388Z,49.06
2017-05-07T22:46:50.282Z,50.32
2017-05-07T22:49:17.172Z,47.82
2017-05-07T22:51:44.507Z,52.32
2017-05-07T22:54:11.794Z,49.52
2017-05-07T22:56:39.082Z,47.80
2017-05-07T22:59:06.784Z,50.24
2017-05-07T23:01:34.071Z,51.28
2017-05-07T23:04:00.982Z,48.60
2017-05-07T23:06:28.438Z,48.94
2017-05-07T23:08:55.723Z,49.42
2017-05-07T23:11:23.056Z,50.84
2017-05-07T23:13:50.383Z,51.22
2017-05-07T23:16:17.665Z,49.86
2017-05-07T23:18:45.313Z,49.86
2017-05-07T23:21:12.641Z,52.10
2017-05-07T23:23:39.992Z,56.82
2017-05-07T23:26:07.283Z,50.78
2017-05-07T23:28:34.987Z,55.44
2017-05-07T23:31:02.294Z,53.76
2017-05-07T23:33:29.572Z,51.94
2017-05-07T23:35:56.893Z,51.64
2017-05-07T23:38:24.175Z,55.60
2017-05-07T23:40:51.165Z,52.22
2017-05-07T23:43:18.522Z,50.98
2017-05-07T23:45:45.805Z,54.84
2017-05-07T23:48:12.692Z,49.64
2017-05-07T23:50:40.017Z,49.68
2017-05-07T23:53:07.675Z,53.48
2017-05-07T23:55:34.958Z,48.98
2017-05-07T23:58:02.287Z,50.98
